Terminal Aerodrome Forecast
Issued by NWS Mt. Holly, NJ

Home | Current Version | Previous Version | Text Only | Print | Product List | Glossary On
Versions: 1 2 3 4 5 6 7 8 9 10 11 12 13 14 15 16 17 18 19 20 21 22 23 24 25 26 27 28 29 30 31 32 33 34
000
FTUS41 KPHI 221100
TAFPHL
TAF
KPHL 221120Z 2212/2318 27012KT P6SM SKC
     FM221400 31016G23KT P6SM SCT035
     FM222300 31012KT P6SM SKC
     FM230400 33005KT P6SM SCT250=

USA.gov is the U.S. government's official web portal to all federal, state and local government web resources and services.